Time;durP1;ratioP1;P1;durP2;ratioP2;P2;SDS_P1;SDS_P2;PMS_P1;PMS_P2;Temp;Humidity;BMP_temperature;BMP_pressure;BME280_temperature;BME280_humidity;BME280_pressure;Samples;Min_cycle;Max_cycle;Signal;HPM_P1;HPM_P2
2022/03/19 00:01:34;;;;;;;11.90;6.30;;;;;;;-4.90;41.64;99591.39;110318;1244;68789;-64
2022/03/19 00:04:04;;;;;;;15.20;9.60;;;;;;;-4.88;42.50;99591.80;110123;1247;69535;-66
2022/03/19 00:06:38;;;;;;;8.90;6.70;;;;;;;-4.89;45.32;99590.58;110412;1245;59655;-63
2022/03/19 00:09:10;;;;;;;12.10;7.20;;;;;;;-4.97;44.57;99589.03;110304;1245;59660;-66
2022/03/19 00:11:39;;;;;;;14.20;8.40;;;;;;;-5.06;46.03;99584.89;110097;1247;69827;-65
2022/03/19 00:14:14;;;;;;;;;;;;;;;-5.15;44.51;99585.20;110102;1246;68825;-66
2022/03/19 00:16:44;;;;;;;14.60;7.70;;;;;;;-5.26;47.89;99582.36;110139;1247;68003;-65
2022/03/19 00:19:13;;;;;;;16.60;10.00;;;;;;;-5.35;45.53;99587.23;110123;1247;59714;-64
2022/03/19 00:21:44;;;;;;;11.60;8.10;;;;;;;-5.43;48.95;99584.14;110368;1244;59750;-64
2022/03/19 00:24:13;;;;;;;10.90;6.60;;;;;;;-5.51;48.84;99580.55;110099;1247;70796;-62
2022/03/19 00:26:42;;;;;;;11.80;8.40;;;;;;;-5.58;48.47;99579.33;110137;1247;68463;-61
2022/03/19 00:29:12;;;;;;;15.90;9.90;;;;;;;-5.66;49.10;99578.12;110175;1247;69331;-64
2022/03/19 00:31:41;;;;;;;12.10;8.00;;;;;;;-5.72;50.65;99574.75;110050;1248;59754;-65
2022/03/19 00:34:11;;;;;;;11.30;7.70;;;;;;;-5.77;49.05;99575.78;110121;1247;60118;-64
2022/03/19 00:36:42;;;;;;;8.20;5.20;;;;;;;-5.82;49.55;99579.55;110118;1247;70654;-64
2022/03/19 00:39:11;;;;;;;;;;;;;;;-5.85;46.52;99578.11;110186;1246;67249;-64
2022/03/19 00:41:42;;;;;;;10.60;7.10;;;;;;;-5.85;44.79;99577.27;110363;1244;69284;-64
2022/03/19 00:44:13;;;;;;;5.70;5.00;;;;;;;-5.82;45.73;99578.01;110125;1247;59752;-66
2022/03/19 00:46:43;;;;;;;7.70;5.20;;;;;;;-5.85;45.48;99575.75;110384;1244;59670;-64
2022/03/19 00:49:13;;;;;;;12.00;7.80;;;;;;;-5.87;44.85;99576.52;110413;1244;71431;-65
2022/03/19 00:51:43;;;;;;;8.20;5.00;;;;;;;-5.91;46.15;99574.58;110050;1247;68465;-64
2022/03/19 00:54:15;;;;;;;5.30;3.40;;;;;;;-5.92;47.61;99574.39;109999;1247;69227;-63
2022/03/19 00:56:47;;;;;;;15.70;8.30;;;;;;;-5.95;47.53;99576.88;110144;1247;59687;-66
2022/03/19 00:59:16;;;;;;;12.00;7.00;;;;;;;-5.99;50.46;99578.98;110187;1245;59677;-63
2022/03/19 01:01:47;;;;;;;14.30;8.60;;;;;;;-6.03;46.61;99576.98;110142;1245;71625;-63
2022/03/19 01:04:17;;;;;;;9.90;6.80;;;;;;;-6.08;51.09;99576.34;110070;1246;67814;-65
2022/03/19 01:06:49;;;;;;;16.70;9.50;;;;;;;-6.10;50.62;99579.98;110195;1247;67914;-61
2022/03/19 01:09:19;;;;;;;12.70;7.70;;;;;;;-6.11;50.73;99580.64;110232;1244;59688;-62
2022/03/19 01:11:51;;;;;;;17.60;9.50;;;;;;;-6.13;50.88;99585.52;110110;1247;59736;-65
2022/03/19 01:14:21;;;;;;;11.70;7.80;;;;;;;-6.15;51.72;99582.59;110161;1247;71356;-65
2022/03/19 01:16:51;;;;;;;10.40;6.90;;;;;;;-6.16;52.39;99582.04;110052;1247;67855;-63
2022/03/19 01:19:52;;;;;;;14.00;9.00;;;;;;;-6.18;51.10;99582.00;110112;1247;68856;-63
2022/03/19 01:22:10;;;;;;;8.00;5.50;;;;;;;-6.23;49.09;99580.85;110183;1244;59671;-65
2022/03/19 01:24:41;;;;;;;7.20;4.30;;;;;;;-6.30;47.90;99582.33;110368;1244;59681;-62
2022/03/19 01:27:13;;;;;;;6.60;4.80;;;;;;;-6.34;46.56;99583.08;110208;1247;70736;-61
2022/03/19 01:29:43;;;;;;;13.60;8.40;;;;;;;-6.35;46.52;99585.73;110103;1247;67744;-62
2022/03/19 01:32:13;;;;;;;8.40;5.60;;;;;;;-6.36;47.82;99586.06;110238;1247;68645;-62
2022/03/19 01:34:43;;;;;;;7.20;5.10;;;;;;;-6.39;47.53;99585.30;110249;1244;60053;-61
2022/03/19 01:37:13;;;;;;;11.90;7.00;;;;;;;-6.43;47.04;99588.40;110259;1245;59685;-67
2022/03/19 01:39:43;;;;;;;;;;;;;;;-6.46;46.21;99583.90;110235;1244;70904;-66
2022/03/19 01:42:24;;;;;;;6.40;4.80;;;;;;;-6.47;47.88;99584.89;110423;1244;68389;-63
2022/03/19 01:44:55;;;;;;;8.50;6.00;;;;;;;-6.42;49.32;99584.86;110155;1247;69345;-65
2022/03/19 01:47:28;;;;;;;7.30;4.90;;;;;;;-6.42;50.66;99586.92;110089;1244;59778;-61
2022/03/19 01:49:58;;;;;;;5.40;3.90;;;;;;;-6.43;51.16;99584.84;110086;1247;59658;-65
2022/03/19 01:52:30;;;;;;;9.80;6.50;;;;;;;-6.43;52.52;99592.79;110046;1247;71347;-63
2022/03/19 01:55:00;;;;;;;9.90;5.60;;;;;;;-6.46;48.94;99591.52;110320;1244;68502;-67
2022/03/19 01:57:35;;;;;;;8.00;6.40;;;;;;;-6.51;47.85;99590.19;110251;1244;67601;-63
2022/03/19 02:00:10;;;;;;;14.80;8.10;;;;;;;-6.56;48.24;99591.21;110100;1247;59719;-65
2022/03/19 02:02:41;;;;;;;5.50;4.60;;;;;;;-6.61;51.63;99591.26;110148;1247;59627;-66
2022/03/19 02:05:14;;;;;;;12.20;6.90;;;;;;;-6.66;50.73;99591.42;110329;1244;71587;-66
2022/03/19 02:07:46;;;;;;;9.00;5.00;;;;;;;-6.72;53.80;99592.63;109926;1247;67946;-67
2022/03/19 02:10:19;;;;;;;12.40;7.90;;;;;;;-6.78;54.64;99592.79;110120;1246;69849;-64
2022/03/19 02:12:52;;;;;;;13.30;6.50;;;;;;;-6.82;53.88;99594.02;110145;1247;59697;-62
2022/03/19 02:15:23;;;;;;;11.20;6.20;;;;;;;-6.88;52.70;99595.17;110099;1247;59707;-61
2022/03/19 02:17:53;;;;;;;12.60;6.80;;;;;;;-6.92;55.09;99596.26;110187;1245;71529;-61
2022/03/19 02:20:24;;;;;;;6.90;5.00;;;;;;;-6.95;53.45;99598.16;110212;1245;68473;-61
2022/03/19 02:25:49;;;;;;;8.70;5.90;;;;;;;-7.01;55.30;99597.98;110382;1244;59737;-62
2022/03/19 02:28:19;;;;;;;14.10;8.70;;;;;;;-7.04;49.50;99595.84;110084;1247;59632;-61
2022/03/19 02:30:50;;;;;;;7.40;4.80;;;;;;;-7.04;48.24;99596.37;110300;1244;70763;-61
2022/03/19 02:33:21;;;;;;;12.00;6.00;;;;;;;-7.04;49.09;99592.45;110437;1244;68581;-62
2022/03/19 02:35:52;;;;;;;8.60;4.60;;;;;;;-7.05;50.13;99593.60;110240;1244;68909;-63
2022/03/19 02:38:22;;;;;;;9.60;5.90;;;;;;;-7.06;49.48;99592.06;110052;1245;59675;-62
2022/03/19 02:40:54;;;;;;;9.80;5.90;;;;;;;-7.06;52.81;99593.91;110156;1244;59666;-62
2022/03/19 02:43:24;;;;;;;9.20;6.00;;;;;;;-7.06;48.71;99594.44;110408;1244;71346;-62
2022/03/19 02:45:55;;;;;;;11.40;7.00;;;;;;;-7.01;48.82;99594.08;110078;1244;67958;-65
2022/03/19 02:48:26;;;;;;;9.30;5.40;;;;;;;-6.96;48.34;99592.37;110123;1245;67606;-65
2022/03/19 02:50:56;;;;;;;10.40;6.10;;;;;;;-6.93;48.19;99593.65;110148;1247;59699;-65
2022/03/19 02:53:27;;;;;;;10.20;6.20;;;;;;;-6.92;48.62;99595.89;110255;1245;59704;-66
2022/03/19 02:55:57;;;;;;;10.60;6.90;;;;;;;-6.92;48.38;99596.25;109487;1247;848628;-64
2022/03/19 02:58:27;;;;;;;6.50;4.80;;;;;;;-6.93;51.56;99600.45;110337;1244;67917;-62
2022/03/19 03:00:58;;;;;;;11.80;8.00;;;;;;;-6.97;52.42;99605.06;110332;1244;68646;-64
2022/03/19 03:03:30;;;;;;;13.40;7.60;;;;;;;-6.99;54.30;99600.75;110304;1244;59670;-66
2022/03/19 03:06:00;;;;;;;11.80;7.30;;;;;;;-7.01;50.82;99599.35;110427;1244;59716;-63
2022/03/19 03:08:30;;;;;;;10.50;7.00;;;;;;;-7.01;51.15;99603.41;110243;1244;69720;-65
2022/03/19 03:11:01;;;;;;;8.80;5.00;;;;;;;-7.00;53.44;99603.10;110429;1245;68436;-64
2022/03/19 03:13:31;;;;;;;9.60;6.00;;;;;;;-7.02;53.35;99604.39;110198;1245;69228;-62
2022/03/19 03:16:01;;;;;;;;;;;;;;;-7.06;51.72;99605.44;110310;1244;59682;-64
2022/03/19 03:18:31;;;;;;;9.90;6.20;;;;;;;-7.11;52.92;99607.65;110160;1244;59620;-63
2022/03/19 03:21:01;;;;;;;7.00;5.40;;;;;;;-7.14;54.56;99608.39;110135;1245;70605;-63
2022/03/19 03:23:34;;;;;;;7.90;4.50;;;;;;;-7.18;51.87;99604.55;110337;1244;67915;-65
2022/03/19 03:26:03;;;;;;;8.40;5.40;;;;;;;-7.20;55.69;99605.34;110022;1247;68848;-65
2022/03/19 03:28:33;;;;;;;5.60;4.20;;;;;;;-7.25;53.45;99602.46;110444;1244;59766;-66
2022/03/19 03:31:03;;;;;;;10.20;6.60;;;;;;;-7.30;54.16;99602.98;110407;1244;59734;-63
2022/03/19 03:33:33;;;;;;;7.00;5.60;;;;;;;-7.37;52.13;99601.20;110082;1247;71312;-65
2022/03/19 03:36:04;;;;;;;14.70;7.60;;;;;;;-7.44;55.54;99601.65;110277;1245;68545;-63
2022/03/19 03:38:35;;;;;;;16.60;9.70;;;;;;;-7.55;57.05;99601.79;110188;1244;69410;-63
2022/03/19 03:41:06;;;;;;;7.50;4.70;;;;;;;-7.65;57.42;99599.40;110155;1244;59742;-62
2022/03/19 03:43:37;;;;;;;11.10;6.90;;;;;;;-7.73;55.47;99600.52;110442;1244;59631;-64
2022/03/19 03:46:07;;;;;;;14.90;8.60;;;;;;;-7.78;55.85;99601.52;110220;1244;70714;-62
2022/03/19 03:48:38;;;;;;;9.90;6.90;;;;;;;-7.83;57.05;99603.68;110190;1247;67686;-61
2022/03/19 03:51:11;;;;;;;16.00;8.60;;;;;;;-7.88;54.85;99607.09;110288;1244;68798;-63
2022/03/19 03:53:45;;;;;;;10.00;6.60;;;;;;;-7.92;55.14;99608.13;110174;1244;59891;-67
2022/03/19 03:56:15;;;;;;;10.60;6.90;;;;;;;-7.95;56.66;99610.07;110211;1244;59708;-65
2022/03/19 03:58:45;;;;;;;14.20;8.60;;;;;;;-7.96;59.06;99611.18;110270;1244;71510;-65
2022/03/19 04:01:16;;;;;;;18.30;11.00;;;;;;;-7.99;57.97;99613.29;110235;1247;68574;-64
2022/03/19 04:03:46;;;;;;;16.70;10.00;;;;;;;-8.01;55.58;99616.25;110160;1244;69874;-67
2022/03/19 04:06:16;;;;;;;9.00;5.40;;;;;;;-8.08;57.87;99612.27;110268;1244;60153;-66
2022/03/19 04:08:46;;;;;;;15.60;7.80;;;;;;;-8.15;56.66;99614.41;110188;1244;59618;-67
2022/03/19 04:11:16;;;;;;;13.80;8.50;;;;;;;-8.18;59.65;99623.60;110144;1247;71537;-64
2022/03/19 04:13:46;;;;;;;15.40;9.40;;;;;;;-8.22;60.00;99627.35;110088;1247;67882;-62
2022/03/19 04:16:16;;;;;;;13.20;7.10;;;;;;;-8.28;59.57;99626.61;110057;1247;67811;-61
2022/03/19 04:18:45;;;;;;;8.40;6.10;;;;;;;-8.36;59.38;99628.53;109990;1247;59741;-64
2022/03/19 04:21:16;;;;;;;14.70;9.20;;;;;;;-8.43;59.23;99632.70;110079;1247;59757;-64
2022/03/19 04:23:47;;;;;;;11.80;7.50;;;;;;;-8.48;60.05;99631.98;110090;1245;71384;-62
2022/03/19 04:26:17;;;;;;;17.10;10.30;;;;;;;-8.51;60.78;99635.73;110131;1247;67642;-61
2022/03/19 04:28:47;;;;;;;12.30;7.40;;;;;;;-8.54;60.29;99633.77;110036;1246;69486;-66
2022/03/19 04:31:17;;;;;;;5.70;4.80;;;;;;;-8.56;60.24;99634.20;110100;1247;59662;-65
2022/03/19 04:33:48;;;;;;;15.20;9.90;;;;;;;-8.56;59.20;99632.52;110079;1247;59751;-63
2022/03/19 04:36:30;;;;;;;10.50;6.10;;;;;;;-8.55;60.95;99635.78;110108;1247;70767;-61
2022/03/19 04:39:02;;;;;;;10.40;5.60;;;;;;;-8.53;58.02;99635.52;110190;1246;68590;-62
2022/03/19 04:41:33;;;;;;;14.00;9.10;;;;;;;-8.50;54.77;99635.62;109987;1247;68633;-61
2022/03/19 04:44:05;;;;;;;17.40;10.00;;;;;;;-8.42;53.91;99637.47;110160;1247;59697;-64
2022/03/19 04:46:35;;;;;;;10.80;7.10;;;;;;;-8.31;53.80;99636.50;110085;1247;59672;-61
2022/03/19 04:49:07;;;;;;;10.50;6.70;;;;;;;-8.21;54.05;99640.57;110102;1247;71721;-61
2022/03/19 04:51:40;;;;;;;17.80;10.30;;;;;;;-8.13;54.15;99641.19;110089;1247;68600;-62
2022/03/19 04:54:10;;;;;;;15.30;8.20;;;;;;;-8.03;55.14;99633.62;110110;1247;69406;-64
2022/03/19 04:56:39;;;;;;;14.00;9.10;;;;;;;-7.93;59.46;99632.64;110043;1247;59713;-65
2022/03/19 04:59:14;;;;;;;9.40;5.90;;;;;;;-7.78;58.37;99636.04;110117;1245;59685;-64
2022/03/19 05:01:43;;;;;;;12.10;6.10;;;;;;;-7.57;57.92;99639.32;110109;1247;71851;-64
2022/03/19 05:04:12;;;;;;;9.10;5.40;;;;;;;-7.35;58.33;99641.42;110137;1247;68445;-64
2022/03/19 05:06:42;;;;;;;23.70;13.60;;;;;;;-7.11;57.11;99639.84;110078;1247;69469;-64
2022/03/19 05:12:00;;;;;;;17.30;10.20;;;;;;;-6.41;55.01;99640.88;110017;1247;59705;-65
2022/03/19 05:14:29;;;;;;;11.60;7.50;;;;;;;-6.13;54.91;99639.86;110448;1244;71728;-62
2022/03/19 05:16:59;;;;;;;12.00;8.20;;;;;;;-5.85;53.85;99643.52;110299;1244;67812;-62
2022/03/19 05:19:28;;;;;;;18.50;11.50;;;;;;;-5.59;53.37;99642.01;110298;1244;69359;-61
2022/03/19 05:21:57;;;;;;;10.20;6.50;;;;;;;-5.39;53.14;99638.65;110346;1244;59769;-64
2022/03/19 05:24:28;;;;;;;13.90;8.30;;;;;;;-5.11;52.01;99640.21;110363;1244;59757;-62
2022/03/19 05:26:58;;;;;;;11.90;7.40;;;;;;;-4.90;51.21;99645.48;110324;1244;70646;-64
2022/03/19 05:29:30;;;;;;;10.10;7.00;;;;;;;-4.70;51.20;99646.33;110318;1244;67942;-63
2022/03/19 05:32:00;;;;;;;16.30;10.60;;;;;;;-4.51;50.20;99649.30;110274;1244;69481;-65
2022/03/19 05:34:29;;;;;;;15.60;10.10;;;;;;;-4.40;49.83;99652.29;110192;1244;59632;-64
2022/03/19 05:37:00;;;;;;;14.90;9.90;;;;;;;-4.30;49.49;99653.37;110313;1244;59770;-64
2022/03/19 05:39:32;;;;;;;9.80;6.50;;;;;;;-4.13;49.14;99655.92;110419;1244;70809;-63
2022/03/19 05:42:03;;;;;;;14.20;9.20;;;;;;;-3.82;50.36;99655.91;110133;1244;69314;-62
2022/03/19 05:44:32;;;;;;;17.20;9.60;;;;;;;-3.51;48.73;99657.37;110354;1244;69459;-61
2022/03/19 05:47:02;;;;;;;35.40;19.40;;;;;;;-3.37;48.26;99657.83;110286;1244;59746;-63
2022/03/19 05:49:32;;;;;;;34.60;18.40;;;;;;;-3.07;48.40;99665.19;110292;1244;59663;-60
2022/03/19 05:52:02;;;;;;;28.90;16.80;;;;;;;-2.85;48.58;99664.20;110265;1244;71531;-62
2022/03/19 05:54:31;;;;;;;40.60;23.70;;;;;;;-2.49;49.54;99667.50;110114;1247;68840;-65
2022/03/19 05:57:00;;;;;;;20.80;14.40;;;;;;;-2.09;49.04;99667.91;110124;1245;69459;-66
2022/03/19 05:59:31;;;;;;;36.20;21.90;;;;;;;-1.90;46.01;99667.33;110338;1244;59770;-67
2022/03/19 06:02:00;;;;;;;55.60;29.80;;;;;;;-1.70;46.88;99667.23;110353;1244;59802;-65
2022/03/19 06:04:29;;;;;;;57.50;32.50;;;;;;;-1.50;46.61;99667.98;109880;1244;71967;-65
2022/03/19 06:06:59;;;;;;;52.20;28.90;;;;;;;-1.41;46.16;99666.20;110390;1244;67088;-67
2022/03/19 06:09:28;;;;;;;36.10;21.40;;;;;;;-1.56;44.88;99664.83;110095;1247;68653;-67
2022/03/19 06:11:58;;;;;;;41.80;23.60;;;;;;;-1.26;43.20;99664.47;110190;1245;59694;-65
2022/03/19 06:14:28;;;;;;;29.50;19.70;;;;;;;-0.98;43.23;99668.86;110176;1244;59647;-66
2022/03/19 06:16:57;;;;;;;26.60;15.40;;;;;;;-0.46;43.53;99668.79;110115;1244;72256;-63
2022/03/19 06:19:27;;;;;;;35.20;18.20;;;;;;;-0.01;41.55;99664.98;110152;1245;67815;-64
2022/03/19 06:21:56;;;;;;;31.10;19.10;;;;;;;0.08;40.21;99661.58;110380;1244;69610;-62
2022/03/19 06:24:25;;;;;;;27.60;16.50;;;;;;;0.21;41.39;99664.73;110232;1244;59714;-62
2022/03/19 06:26:55;;;;;;;29.50;16.90;;;;;;;0.61;40.70;99665.92;110164;1245;59677;-62
2022/03/19 06:29:25;;;;;;;21.70;13.20;;;;;;;0.61;38.34;99664.55;110186;1247;70774;-62
2022/03/19 06:31:54;;;;;;;22.70;13.90;;;;;;;0.95;39.06;99666.18;110036;1247;67669;-63
2022/03/19 06:34:23;;;;;;;19.70;12.50;;;;;;;1.24;37.63;99663.63;110181;1245;69462;-61
2022/03/19 06:39:41;;;;;;;17.40;11.10;;;;;;;1.33;36.21;99663.30;110141;1244;59658;-63
2022/03/19 06:42:11;;;;;;;17.40;9.70;;;;;;;1.59;35.42;99663.63;110163;1244;71754;-65
2022/03/19 06:44:40;;;;;;;13.00;9.10;;;;;;;1.85;35.90;99661.17;110097;1247;68382;-62
2022/03/19 06:47:10;;;;;;;20.90;13.10;;;;;;;2.19;34.76;99658.16;110108;1245;68764;-63
2022/03/19 06:49:41;;;;;;;17.80;11.40;;;;;;;2.26;33.62;99657.80;110374;1244;59744;-65
2022/03/19 06:52:10;;;;;;;17.50;11.70;;;;;;;2.29;33.17;99660.88;110033;1247;59736;-63
2022/03/19 06:54:39;;;;;;;11.40;8.40;;;;;;;2.51;32.45;99658.22;110391;1244;71529;-63
2022/03/19 06:57:09;;;;;;;16.10;10.20;;;;;;;2.58;30.58;99661.81;110296;1244;67814;-65
2022/03/19 06:59:38;;;;;;;12.30;8.30;;;;;;;3.09;31.79;99668.74;110366;1244;68622;-65
2022/03/19 07:02:09;;;;;;;12.10;8.60;;;;;;;3.43;30.45;99661.77;110284;1244;59680;-62
2022/03/19 07:04:38;;;;;;;13.90;9.70;;;;;;;3.49;30.38;99663.96;110418;1244;59694;-63
2022/03/19 07:07:07;;;;;;;13.40;9.40;;;;;;;3.72;30.50;99659.78;110263;1244;71583;-64
2022/03/19 07:09:36;;;;;;;13.70;9.70;;;;;;;4.36;30.98;99657.72;110134;1244;68566;-62
2022/03/19 07:12:06;;;;;;;11.30;9.00;;;;;;;4.87;30.76;99657.58;110220;1244;69219;-64
2022/03/19 07:14:36;;;;;;;12.60;9.40;;;;;;;5.17;29.24;99658.52;110196;1244;59847;-61
2022/03/19 07:17:06;;;;;;;11.70;8.10;;;;;;;5.04;28.47;99659.23;110092;1245;59751;-64
2022/03/19 07:19:35;;;;;;;11.70;7.60;;;;;;;5.17;29.01;99660.92;110197;1244;71596;-64
2022/03/19 07:22:05;;;;;;;12.40;9.10;;;;;;;5.64;29.35;99656.54;110103;1245;68088;-63
2022/03/19 07:24:35;;;;;;;12.80;8.40;;;;;;;5.90;28.10;99658.55;110224;1244;69670;-65
2022/03/19 07:27:06;;;;;;;11.20;7.70;;;;;;;5.81;27.35;99654.71;110414;1244;59690;-66
2022/03/19 07:29:35;;;;;;;13.00;9.50;;;;;;;5.51;27.52;99659.54;110275;1244;59659;-65
2022/03/19 07:32:05;;;;;;;10.50;8.70;;;;;;;5.46;28.43;99661.86;109953;1244;72296;-66
2022/03/19 07:34:39;;;;;;;12.40;8.50;;;;;;;6.11;28.48;99661.09;110094;1247;67868;-65
2022/03/19 07:37:09;;;;;;;15.10;9.00;;;;;;;6.43;27.04;99659.79;110336;1244;68633;-61
2022/03/19 07:39:39;;;;;;;11.50;8.70;;;;;;;6.36;26.45;99656.42;110323;1244;59707;-65
2022/03/19 07:42:09;;;;;;;9.20;7.00;;;;;;;6.31;27.24;99656.02;110388;1244;59679;-64
2022/03/19 07:44:38;;;;;;;;;;;;;;;6.65;25.74;99661.23;110206;1244;70803;-65
2022/03/19 07:47:07;;;;;;;12.60;8.70;;;;;;;6.69;25.80;99662.70;110260;1244;68626;-64
2022/03/19 07:49:39;;;;;;;12.80;9.00;;;;;;;6.77;25.83;99662.19;110152;1245;69469;-65
2022/03/19 07:52:13;;;;;;;12.30;8.90;;;;;;;6.85;25.55;99660.98;110126;1244;59688;-67
2022/03/19 07:54:42;;;;;;;11.90;7.10;;;;;;;6.42;25.86;99657.70;110141;1244;59732;-64
2022/03/19 07:57:12;;;;;;;9.90;7.40;;;;;;;6.88;26.09;99661.58;110115;1244;72218;-63
2022/03/19 07:59:41;;;;;;;7.70;5.40;;;;;;;7.25;25.01;99664.23;110272;1244;68635;-64
2022/03/19 08:02:10;;;;;;;9.80;7.30;;;;;;;7.66;24.64;99656.80;110350;1244;69476;-65
2022/03/19 08:04:40;;;;;;;10.90;8.30;;;;;;;8.01;23.97;99660.41;110145;1244;59727;-64
2022/03/19 08:07:09;;;;;;;8.60;6.40;;;;;;;8.28;23.73;99657.58;110398;1244;59618;-67
2022/03/19 08:09:38;;;;;;;11.10;7.60;;;;;;;8.54;22.90;99654.61;110416;1244;71555;-63
2022/03/19 08:12:08;;;;;;;9.60;8.00;;;;;;;9.13;23.17;99652.48;110245;1244;67856;-66
2022/03/19 08:14:37;;;;;;;;;;;;;;;9.26;21.62;99650.88;110164;1247;69252;-67
2022/03/19 08:17:07;;;;;;;11.10;8.40;;;;;;;9.52;21.55;99652.29;110141;1245;59717;-64
2022/03/19 08:19:36;;;;;;;10.40;7.50;;;;;;;9.16;21.77;99649.79;110349;1244;59731;-65
2022/03/19 08:22:26;;;;;;;10.30;7.60;;;;;;;9.28;21.78;99653.23;110249;1244;72280;-66
2022/03/19 08:24:56;;;;;;;9.90;6.40;;;;;;;9.39;21.24;99651.15;110089;1247;68542;-63
2022/03/19 08:27:26;;;;;;;7.20;6.50;;;;;;;9.30;21.52;99654.56;110097;1244;69386;-62
2022/03/19 08:29:55;;;;;;;;;;;;;;;9.66;21.36;99654.62;110101;1245;59680;-63
2022/03/19 08:32:24;;;;;;;9.00;5.70;;;;;;;10.01;21.12;99653.92;110273;1244;59670;-64
2022/03/19 08:34:54;;;;;;;8.10;5.90;;;;;;;9.86;20.91;99649.91;110308;1244;71554;-62
2022/03/19 08:37:23;;;;;;;9.30;6.40;;;;;;;9.98;20.88;99645.68;110351;1244;68769;-65
2022/03/19 08:42:48;;;;;;;7.60;5.50;;;;;;;10.02;21.10;99641.36;110186;1247;59756;-62
2022/03/19 08:45:21;;;;;;;9.60;7.20;;;;;;;10.59;20.84;99643.34;110397;1244;59678;-64
2022/03/19 08:47:50;;;;;;;10.80;7.00;;;;;;;10.88;20.90;99640.33;110227;1244;71622;-64
2022/03/19 08:50:21;;;;;;;9.00;6.70;;;;;;;10.83;20.39;99637.89;110171;1244;68818;-64
2022/03/19 08:52:50;;;;;;;12.80;7.50;;;;;;;11.14;20.81;99635.42;110141;1245;68743;-64
2022/03/19 08:55:19;;;;;;;10.40;8.30;;;;;;;11.20;20.59;99630.14;110374;1244;59754;-61
2022/03/19 08:57:48;;;;;;;9.80;7.30;;;;;;;11.06;20.37;99625.83;110371;1244;59666;-63
2022/03/19 09:00:18;;;;;;;16.90;12.20;;;;;;;11.74;20.14;99620.05;110227;1244;70987;-65
2022/03/19 09:02:47;;;;;;;8.20;6.50;;;;;;;11.21;20.06;99619.10;110060;1247;68779;-64
2022/03/19 09:05:17;;;;;;;11.30;6.90;;;;;;;11.03;20.22;99617.39;110237;1244;69149;-64
2022/03/19 09:07:46;;;;;;;11.10;7.60;;;;;;;11.39;20.35;99619.58;109863;1246;59771;-65
2022/03/19 09:10:15;;;;;;;9.10;6.90;;;;;;;11.81;19.72;99614.89;110301;1244;59708;-64
2022/03/19 09:12:46;;;;;;;9.30;6.80;;;;;;;12.41;19.15;99613.83;110303;1244;71674;-63
2022/03/19 09:15:15;;;;;;;8.90;7.30;;;;;;;12.26;19.40;99612.72;110196;1244;68842;-66
2022/03/19 09:17:44;;;;;;;8.50;6.60;;;;;;;12.46;18.98;99612.86;110060;1247;69799;-66
2022/03/19 09:20:14;;;;;;;9.30;6.50;;;;;;;12.81;18.22;99611.27;110128;1247;59731;-65
2022/03/19 09:22:43;;;;;;;8.50;6.50;;;;;;;12.41;18.26;99609.45;110182;1244;59754;-64
2022/03/19 09:25:12;;;;;;;11.30;9.00;;;;;;;12.13;18.67;99605.65;110114;1245;72235;-63
2022/03/19 09:27:41;;;;;;;8.90;6.10;;;;;;;11.96;18.89;99603.38;110171;1245;68714;-64
2022/03/19 09:30:11;;;;;;;8.30;7.40;;;;;;;11.85;19.63;99601.42;110111;1245;70059;-64
2022/03/19 09:32:41;;;;;;;8.30;7.00;;;;;;;12.47;18.97;99603.58;110170;1244;59695;-66
2022/03/19 09:35:28;;;;;;;8.40;5.90;;;;;;;13.48;18.67;99603.29;110097;1244;59728;-64
2022/03/19 09:37:57;;;;;;;7.10;5.70;;;;;;;13.74;17.41;99598.90;110217;1244;71557;-63
2022/03/19 09:40:27;;;;;;;9.90;6.70;;;;;;;13.63;17.47;99595.23;110384;1244;68714;-66
2022/03/19 09:42:59;;;;;;;8.30;5.90;;;;;;;13.83;16.78;99597.55;110149;1244;69070;-64
2022/03/19 09:45:29;;;;;;;7.40;5.80;;;;;;;14.13;17.10;99597.89;110390;1244;59948;-66
2022/03/19 09:47:58;;;;;;;6.50;4.70;;;;;;;14.02;16.87;99599.13;110426;1244;59621;-62
2022/03/19 09:50:28;;;;;;;7.60;5.50;;;;;;;14.43;16.32;99599.63;110399;1244;71027;-63
2022/03/19 09:52:58;;;;;;;8.10;6.10;;;;;;;14.46;16.42;99593.17;110085;1245;67936;-66
2022/03/19 09:55:29;;;;;;;9.50;5.90;;;;;;;14.07;16.41;99597.83;110469;1244;69433;-66
2022/03/19 09:58:00;;;;;;;7.20;6.50;;;;;;;13.98;16.61;99600.23;110067;1247;59924;-66
2022/03/19 10:00:31;;;;;;;7.40;5.70;;;;;;;13.68;17.27;99597.27;110119;1245;59753;-65
2022/03/19 10:03:03;;;;;;;6.10;4.80;;;;;;;13.98;16.83;99598.84;110153;1244;71472;-64
2022/03/19 10:08:43;;;;;;;6.70;5.00;;;;;;;13.15;16.69;99589.84;110417;1244;69298;-64
2022/03/19 10:11:16;;;;;;;5.30;4.10;;;;;;;13.66;16.48;99581.91;110170;1244;59679;-64
2022/03/19 10:13:47;;;;;;;7.30;5.50;;;;;;;13.22;16.50;99583.36;110325;1244;59692;-64
2022/03/19 10:16:22;;;;;;;5.90;5.20;;;;;;;14.28;16.68;99580.78;110363;1242;70681;-66
2022/03/19 10:18:58;;;;;;;8.20;4.90;;;;;;;14.93;15.69;99577.91;110161;1244;67943;-67
2022/03/19 10:21:29;;;;;;;6.30;4.60;;;;;;;15.15;14.81;99574.39;110367;1244;68852;-67
2022/03/19 10:23:59;;;;;;;5.90;4.80;;;;;;;14.88;15.65;99577.85;110387;1244;59632;-66
2022/03/19 10:26:34;;;;;;;4.90;4.20;;;;;;;15.30;15.04;99572.11;110187;1245;59715;-67
2022/03/19 10:29:11;;;;;;;6.50;4.70;;;;;;;15.81;14.64;99566.15;110102;1247;71658;-63
2022/03/19 10:31:46;;;;;;;4.90;4.00;;;;;;;15.96;14.81;99567.39;110135;1244;67876;-63
2022/03/19 10:34:15;;;;;;;5.00;4.10;;;;;;;15.67;14.44;99569.21;110108;1247;68771;-63
2022/03/19 10:36:46;;;;;;;5.70;3.90;;;;;;;15.59;14.55;99565.49;110211;1244;59729;-64
2022/03/19 10:39:27;;;;;;;4.80;3.90;;;;;;;15.94;14.34;99562.16;110399;1244;60015;-64
2022/03/19 10:41:58;;;;;;;5.20;3.50;;;;;;;16.20;13.66;99555.72;110215;1245;71567;-64
2022/03/19 10:44:28;;;;;;;4.90;3.80;;;;;;;16.18;13.73;99558.11;110417;1244;68641;-62
2022/03/19 10:47:00;;;;;;;4.70;3.80;;;;;;;15.99;13.53;99555.55;110210;1245;69340;-62
2022/03/19 10:49:30;;;;;;;3.60;3.10;;;;;;;15.96;13.37;99552.42;110393;1244;60097;-64
2022/03/19 10:52:04;;;;;;;4.40;3.30;;;;;;;15.57;13.60;99546.50;110403;1244;59609;-63
2022/03/19 10:54:34;;;;;;;4.30;3.00;;;;;;;15.45;13.83;99551.42;110442;1244;70799;-64
2022/03/19 10:57:05;;;;;;;5.20;4.00;;;;;;;15.86;13.49;99540.73;110443;1244;68789;-63
2022/03/19 10:59:35;;;;;;;7.10;4.70;;;;;;;16.01;13.40;99538.75;110443;1244;69316;-65
2022/03/19 11:02:06;;;;;;;24.70;18.60;;;;;;;15.18;14.25;99539.47;110135;1247;59754;-64
2022/03/19 11:04:36;;;;;;;5.70;4.30;;;;;;;14.85;14.13;99536.27;110412;1244;59663;-64
2022/03/19 11:07:05;;;;;;;;;;;;;;;14.02;14.50;99543.92;110138;1244;70507;-67
2022/03/19 11:09:38;;;;;;;5.80;4.10;;;;;;;13.33;14.97;99541.20;110134;1247;68430;-65
2022/03/19 11:12:09;;;;;;;11.80;6.90;;;;;;;12.99;15.75;99535.17;110028;1247;69009;-65
2022/03/19 11:14:41;;;;;;;6.10;4.20;;;;;;;13.33;15.59;99532.08;110180;1247;59681;-64
2022/03/19 11:17:28;;;;;;;6.30;4.40;;;;;;;13.47;15.95;99526.65;110123;1247;59586;-64
2022/03/19 11:20:00;;;;;;;5.20;3.70;;;;;;;14.38;15.32;99527.45;110133;1246;70977;-65
2022/03/19 11:22:41;;;;;;;5.20;3.90;;;;;;;14.56;14.92;99527.71;110110;1247;68719;-65
2022/03/19 11:25:26;;;;;;;11.00;7.70;;;;;;;15.07;14.57;99521.51;110147;1247;69532;-66
2022/03/19 11:28:13;;;;;;;7.70;4.90;;;;;;;14.87;14.61;99518.63;110079;1247;60206;-65
2022/03/19 11:30:58;;;;;;;7.60;5.20;;;;;;;14.57;14.59;99519.41;110131;1247;59676;-63
2022/03/19 11:33:31;;;;;;;8.00;5.60;;;;;;;14.57;14.74;99513.25;110112;1247;71959;-64
2022/03/19 11:36:00;;;;;;;5.70;4.80;;;;;;;14.37;14.95;99512.40;110070;1247;68495;-63
2022/03/19 11:38:32;;;;;;;5.90;4.30;;;;;;;14.11;15.08;99506.14;110081;1247;68685;-66
2022/03/19 11:41:17;;;;;;;7.60;4.50;;;;;;;13.42;15.19;99502.88;110079;1247;59747;-65
2022/03/19 11:43:47;;;;;;;5.80;4.70;;;;;;;13.49;15.39;99502.02;110099;1247;59757;-65
2022/03/19 11:46:19;;;;;;;5.30;3.90;;;;;;;13.43;15.56;99503.57;110098;1247;71566;-65
2022/03/19 11:48:51;;;;;;;6.20;4.20;;;;;;;12.91;16.16;99500.89;110210;1247;68726;-64
2022/03/19 11:51:33;;;;;;;10.50;8.20;;;;;;;13.86;15.61;99497.11;110136;1247;68814;-64
2022/03/19 11:54:12;;;;;;;7.30;6.30;;;;;;;14.26;15.22;99495.64;110115;1247;59675;-64
2022/03/19 11:56:41;;;;;;;7.90;5.40;;;;;;;13.99;15.23;99498.15;110091;1247;60172;-64